This is the latest recevied weather packets stored in our database for station/object KG7KID-3. If no packets are shown the sender has not sent any weather packets the latest 10 day(s).
| Time | Temp. | Humidity | Pressure | Rain* | Wind** | Luminosity | Snow |
|---|---|---|---|---|---|---|---|
| 1787623156 | - | - | 887.3 hPa | 0 mm | - | - | - |
| 1787622856 | 36.11° C | - | 887 hPa | 0 mm | - | - | - |
| 1787606056 | 37.78° C | 21% | 888.5 hPa | 0 mm | - | - | - |
| 1787598856 | 37.22° C | 23% | 889.7 hPa | 0 mm | - | - | - |
| 1787597757 | 36.67° C | 25% | 890 hPa | 0 mm | - | - | - |
| 1787597656 | 36.67° C | 25% | 890 hPa | 0 mm | - | - | - |
| 1787589859 | 32.78° C | 31% | 891 hPa | 0 mm | - | - | - |
| 1787589485 | 32.22° C | 32% | 891 hPa | 0 mm | - | - | - |
| 1787589259 | 32.22° C | 32% | 891 hPa | 0 mm | - | - | - |
| 1787589079 | 32.22° C | 32% | 891 hPa | 0 mm | - | - | - |
| 1787588959 | 32.22° C | 32% | 891 hPa | 0 mm | - | - | - |
| 1787588359 | 31.67° C | 34% | 891 hPa | 0 mm | - | - | - |
| 1787588058 | 31.11° C | 34% | 891.1 hPa | 0 mm | - | - | - |
| 1787587915 | 31.11° C | 34% | 891.1 hPa | 0 mm | - | - | - |
| 1787587759 | 31.11° C | 34% | 891.1 hPa | 0 mm | - | - | - |
| 1787587536 | 30.56° C | 34% | 891 hPa | 0 mm | - | - | - |
| 1787587459 | 30.56° C | 34% | 891 hPa | 0 mm | - | - | - |
| 1787587233 | 30.56° C | 35% | 891 hPa | 0 mm | - | - | - |
| 1787587158 | 30.56° C | 35% | 891 hPa | 0 mm | - | - | - |
| 1787586859 | 30.56° C | 35% | 891 hPa | 0 mm | - | - | - |
| 1787586559 | 30.56° C | 36% | 891 hPa | 0 mm | - | - | - |
| 1787586039 | 30° C | 37% | 891 hPa | 0 mm | - | - | - |
| 1787585959 | 30° C | 37% | 891 hPa | 0 mm | - | - | - |
| 1787585795 | 30° C | 38% | 890.9 hPa | 0 mm | - | - | - |
| 1787585659 | 30° C | 38% | 890.9 hPa | 0 mm | - | - | - |
* Rain latest hour (hover to see other rain measurements)
** Current wind speed in m/s (hover to see current wind gust speed)